METAR Data
IDs: Format: Raw Decoded Include TAF

Data at: 1410 UTC 13 Dec 2019

KSGT 131404Z AUTO 13003KT 3SM BR OVC003 07/07 A3001 RMK AO2 CIG 003V007
KSGT 131356Z AUTO 00000KT 2 1/2SM BR OVC003 07/07 A3001 RMK AO2 RAE02 CIG 003V007 SLP165 P0000 T00720072
KSGT 131343Z AUTO 14003KT 2 1/2SM BR OVC003 07/07 A3001 RMK AO2 RAE02 P0000
KSGT 131332Z AUTO 15003KT 1 1/2SM BR OVC003 07/07 A3001 RMK AO2 RAE02 CIG 002V007 P0000
KSGT 131314Z AUTO 16004KT 1SM BR OVC003 07/07 A3001 RMK AO2 RAE02 P0000 RVRNO
KSGT 131304Z AUTO 15004KT 1 1/2SM BR OVC003 07/07 A3001 RMK AO2 RAE02 P0000
KSGT 131256Z AUTO 16004KT 1SM -RA BR OVC003 07/07 A3001 RMK AO2 SLP166 P0000 T00720067 RVRNO
KSGT 131156Z AUTO 15003KT 1/2SM -RA FG OVC003 07/07 A3002 RMK AO2 SLP168 P0000 60000 T00670067 10067 20028 56007 RVRNO
KSGT 131056Z AUTO 18005KT 1/4SM -RA FG OVC003 07/07 A3003 RMK AO2 SLP169 P0000 T00670067 RVRNO
KSGT 131051Z AUTO 18006KT 1/4SM -RA FG OVC003 07/07 A3003 RMK AO2 P0000 RVRNO
KSGT 130956Z AUTO 18005KT 1/2SM -RA FG OVC003 07/06 A3004 RMK AO2 SLP174 P0000 T00670061 RVRNO
KSGT 130921Z AUTO 17007KT 1/2SM -RA FG OVC003 06/06 A3005 RMK AO2 P0000 RVRNO
KSGT 130856Z AUTO 16010KT 3/4SM -RA BR OVC003 06/06 A3006 RMK AO2 SLP180 P0000 60000 T00610061 56009 RVRNO
KSGT 130851Z AUTO 16008KT 1/2SM -RA FG OVC003 06/06 A3006 RMK AO2 P0000 RVRNO
KSGT 130836Z AUTO 17009KT 3/4SM -RA BR OVC003 06/06 A3007 RMK AO2 P0000 RVRNO
KSGT 130829Z AUTO 17009KT 1 1/4SM -RA BR OVC003 06/06 A3008 RMK AO2 P0000
KSGT 130823Z AUTO 18010KT 3/4SM -RA BR OVC003 06/06 A3008 RMK AO2 P0000 RVRNO
KSGT 130756Z AUTO 16007KT 1/2SM -RA FG OVC003 06/05 A3008 RMK AO2 RAB40 SLP188 P0000 T00560050 RVRNO
KSGT 130753Z AUTO 16008KT 1/2SM -RA FG BKN003 OVC090 06/05 A3009 RMK AO2 RAB40 P0000 RVRNO
KSGT 130742Z AUTO 15010KT 3/4SM -RA BR BKN003 OVC090 05/05 A3009 RMK AO2 RAB40 P0000 RVRNO
KSGT 130739Z AUTO 16009KT 1 1/2SM BR BKN003 OVC090 05/04 A3009 RMK AO2
KSGT 130736Z AUTO 16010KT 4SM BR SCT003 OVC090 05/04 A3009 RMK AO2
KSGT 130656Z AUTO 13006KT 9SM FEW095 03/02 A3010 RMK AO2 SLP196 T00330022
KSGT 130556Z AUTO 00000KT 10SM CLR 03/01 A3012 RMK AO2 SLP202 T00280011 10067 20022 401171011 56010
KSGT 130456Z AUTO 17003KT 10SM CLR 04/02 A3014 RMK AO2 SLP207 T00440022
KSGT 130356Z AUTO 14004KT 8SM CLR 04/02 A3014 RMK AO2 SLP207 T00390022
KSGT 130256Z AUTO 17004KT 10SM CLR 05/02 A3015 RMK AO2 SLP212 T00500022 58009
KSGT 130156Z AUTO 13004KT 8SM CLR 06/02 A3017 RMK AO2 SLP219 T00560017
KSGT 130056Z AUTO 13005KT 7SM CLR 06/02 A3018 RMK AO2 SLP221 T00560017
KSGT 122356Z AUTO 15005KT 9SM CLR 07/02 A3018 RMK AO2 SLP222 60000 T00670017 10117 20067 55012
KSGT 122256Z AUTO 16005KT 10SM CLR 09/02 A3018 RMK AO2 SLP221 T00940017
KSGT 122156Z AUTO 14007KT 7SM CLR 11/01 A3020 RMK AO2 SLP228 T01110006
KSGT 122117Z AUTO 13004KT 3SM HZ CLR 11/01 A3021 RMK AO2
KSGT 122056Z AUTO 12006KT 2SM HZ CLR 11/01 A3021 RMK AO2 VIS 1/2V5 SLP234 60000 T01110011 56033
KSGT 122045Z AUTO 16006KT 10SM CLR 11/01 A3022 RMK AO2
KSGT 122035Z AUTO 20004KT 1 1/4SM HZ CLR 11/01 A3023 RMK AO2
KSGT 121956Z AUTO 19005KT 10SM CLR 11/01 A3024 RMK AO2 SLP241 T01110006
KSGT 121856Z AUTO 17008KT 4SM HZ CLR 10/M01 A3028 RMK AO2 RAE01B21E31 SLP254 P0000 T01001006
KSGT 121834Z AUTO 16009KT 9SM CLR 11/M01 A3029 RMK AO2 RAE01B21E31 P0000
KSGT 121827Z AUTO 17011KT 2SM -RA CLR 11/M01 A3029 RMK AO2 RAE01B21 P0000
KSGT 121825Z AUTO 15010KT 1SM -RA CLR 11/M01 A3029 RMK AO2 RAE01B21 P0000 RVRNO
KSGT 121759Z AUTO 15009KT 1/2SM -RA CLR 10/01 A3031 RMK AO2 VIS 1/4V4 P0000 RVRNO
KSGT 121756Z AUTO 16009KT 1SM -RA CLR 10/01 A3031 RMK AO2 VIS 1/4V4 SLP267 P0000 60000 T01000006 10100 21011 58029 RVRNO
KSGT 121747Z AUTO 15009KT 2 1/2SM -RA CLR 10/01 A3032 RMK AO2 VIS 1 1/2V4 P0000
KSGT 121740Z AUTO 15008KT 1 3/4SM -RA CLR 09/01 A3033 RMK AO2 VIS 1 1/4V4 PRESFR P0000
KSGT 121733Z AUTO 14007KT 1SM -RA CLR 09/01 A3034 RMK AO2 P0000 RVRNO
KSGT 121721Z AUTO 13006KT 1/2SM -RA CLR 09/01 A3035 RMK AO2 VIS 1/4V5 P0000 RVRNO
KSGT 121656Z AUTO 15007KT 3/4SM -RA CLR 08/M01 A3037 RMK AO2 RAE1558B25 SLP287 P0000 T00831006 RVRNO
KSGT 121636Z AUTO 14007KT 3/4SM -RA CLR 08/M01 A3039 RMK AO2 VIS 1/4V5 RAE1558B25 P0000 RVRNO
KSGT 121629Z AUTO 15007KT 1 1/4SM -RA CLR 08/M01 A3039 RMK AO2 VIS 1/2V5 RAE1558B25 P0000
KSGT 121611Z AUTO 13005KT 3/4SM HZ CLR 07/01 A3039 RMK AO2 VIS 1/2V2 RAE1558 P0000 RVRNO
KSGT 121604Z AUTO 13007KT 1 1/4SM HZ CLR 07/00 A3040 RMK AO2 VIS 3/4V3 RAE1558 P0000
KSGT 121556Z AUTO 12007KT 2SM -RA CLR 07/00 A3040 RMK AO2 VIS 3/4V5 SLP297 P0000 T00670000
KSGT 121551Z AUTO 12007KT 2 1/2SM -RA CLR 07/00 A3040 RMK AO2 VIS 1 1/4V5 P0000
KSGT 121544Z AUTO 11007KT 3SM -RA CLR 06/01 A3040 RMK AO2 P0000
KSGT 121511Z AUTO 11007KT 1 1/2SM -RA CLR 05/01 A3042 RMK AO2 VIS 1V3 P0000
KSGT 121456Z AUTO 09006KT 1SM -RA CLR 04/01 A3042 RMK AO2 VIS 3/4V1 3/4 RAB52 SLP303 P0000 60000 T00390011 56004 RVRNO
KSGT 121450Z AUTO 09006KT 1 3/4SM BR CLR 03/02 A3042 RMK AO2
KSGT 121356Z AUTO 08004KT 8SM CLR 01/00 A3042 RMK AO2 SLP303 T00060000 FZRANO
KSGT 121308Z AUTO 07004KT 6SM BR CLR M01/M01 A3043 RMK AO2 FZRANO
KSGT 121304Z AUTO 06004KT 1SM BR CLR M01/M01 A3042 RMK AO2 FZRANO RVRNO
KSGT 121256Z AUTO 06005KT 8SM CLR M01/M02 A3042 RMK AO2 SLP305 T10111017 FZRANO
KSGT 121243Z AUTO 01004KT 10SM CLR M01/M02 A3043 RMK AO2 FZRANO
KSGT 121236Z AUTO 02003KT 2SM BR CLR M01/M01 A3043 RMK AO2 FZRANO
KSGT 121229Z AUTO 04003KT 1SM BR CLR M01/M02 A3043 RMK AO2 VIS 1/4V5 FZRANO RVRNO
KSGT 121218Z AUTO 05004KT 1/2SM FZFG CLR M01/M02 A3043 RMK AO2 FZRANO RVRNO
KSGT 121208Z AUTO 05004KT 3/4SM BR CLR M01/M02 A3043 RMK AO2 VIS 1/4V5 FZRANO RVRNO
KSGT 121205Z AUTO 05004KT 1 3/4SM BR CLR M01/M02 A3043 RMK AO2 FZRANO
KSGT 121156Z AUTO 03004KT 10SM CLR M01/M02 A3043 RMK AO2 SLP307 T10061017 10028 21006 55009 FZRANO
KSGT 121056Z AUTO 06004KT 5SM BR CLR 00/M01 A3042 RMK AO2 SLP304 T00001011 FZRANO
KSGT 120956Z AUTO 06003KT 8SM CLR 00/M01 A3043 RMK AO2 SLP308 T00001011 FZRANO
KSGT 120856Z AUTO 06003KT 8SM CLR 00/M01 A3046 RMK AO2 SLP316 T00001011 58010 FZRANO
KSGT 120756Z AUTO 06003KT 7SM CLR 01/M01 A3047 RMK AO2 SLP320 T00111006 FZRANO
KSGT 120656Z AUTO 13004KT 10SM CLR 02/M01 A3048 RMK AO2 SLP323 T00221006 FZRANO
KSGT 120556Z AUTO 15005KT 10SM CLR 03/M01 A3049 RMK AO2 SLP326 T00281006 10061 20022 401061028 58003
KSGT 120456Z AUTO 15005KT 10SM CLR 03/01 A3050 RMK AO2 SLP330 T00280006
KSGT 120356Z AUTO 15005KT 10SM CLR 03/01 A3050 RMK AO2 SLP331 T00330011
KSGT 120256Z AUTO 14004KT 10SM CLR 04/01 A3050 RMK AO2 SLP330 T00390011 55002